sensor_id;sensor_type;location;lat;lon;timestamp;P1;durP1;ratioP1;P2;durP2;ratioP2
45792;SDS011;31495;42.740;22.908;2022-10-26T00:00:26;9.45;;;4.28;;
45792;SDS011;31495;42.740;22.908;2022-10-26T00:01:26;13.35;;;4.95;;
45792;SDS011;31495;42.740;22.908;2022-10-26T00:02:26;8.88;;;4.65;;
45792;SDS011;31495;42.740;22.908;2022-10-26T00:03:26;11.27;;;5.35;;
45792;SDS011;31495;42.740;22.908;2022-10-26T00:04:25;13.45;;;5.53;;
45792;SDS011;31495;42.740;22.908;2022-10-26T00:05:25;11.15;;;5.68;;
45792;SDS011;31495;42.740;22.908;2022-10-26T00:06:24;14.82;;;4.95;;
45792;SDS011;31495;42.740;22.908;2022-10-26T00:07:28;13.60;;;5.80;;
45792;SDS011;31495;42.740;22.908;2022-10-26T00:08:28;10.32;;;4.28;;
45792;SDS011;31495;42.740;22.908;2022-10-26T00:09:27;15.18;;;5.07;;
45792;SDS011;31495;42.740;22.908;2022-10-26T00:10:27;8.60;;;4.93;;
45792;SDS011;31495;42.740;22.908;2022-10-26T00:11:26;13.38;;;5.95;;
45792;SDS011;31495;42.740;22.908;2022-10-26T00:12:26;17.33;;;6.38;;
45792;SDS011;31495;42.740;22.908;2022-10-26T00:13:25;22.38;;;6.88;;
45792;SDS011;31495;42.740;22.908;2022-10-26T00:14:26;7.97;;;4.30;;
45792;SDS011;31495;42.740;22.908;2022-10-26T00:15:26;13.70;;;5.32;;
45792;SDS011;31495;42.740;22.908;2022-10-26T00:16:26;13.70;;;5.03;;
45792;SDS011;31495;42.740;22.908;2022-10-26T00:17:27;16.05;;;5.97;;
45792;SDS011;31495;42.740;22.908;2022-10-26T00:18:27;12.25;;;5.78;;
45792;SDS011;31495;42.740;22.908;2022-10-26T00:19:26;11.05;;;6.15;;
45792;SDS011;31495;42.740;22.908;2022-10-26T00:20:26;13.50;;;6.18;;
45792;SDS011;31495;42.740;22.908;2022-10-26T00:21:26;11.60;;;5.13;;
45792;SDS011;31495;42.740;22.908;2022-10-26T00:22:26;13.00;;;4.75;;
45792;SDS011;31495;42.740;22.908;2022-10-26T00:23:25;9.00;;;4.72;;
45792;SDS011;31495;42.740;22.908;2022-10-26T00:24:25;8.52;;;4.30;;
45792;SDS011;31495;42.740;22.908;2022-10-26T00:25:25;11.90;;;4.93;;
45792;SDS011;31495;42.740;22.908;2022-10-26T00:26:24;10.07;;;5.07;;
45792;SDS011;31495;42.740;22.908;2022-10-26T00:27:24;13.48;;;5.88;;
45792;SDS011;31495;42.740;22.908;2022-10-26T00:28:24;11.55;;;4.95;;
45792;SDS011;31495;42.740;22.908;2022-10-26T00:29:24;8.55;;;4.43;;
45792;SDS011;31495;42.740;22.908;2022-10-26T00:30:23;12.07;;;5.65;;
45792;SDS011;31495;42.740;22.908;2022-10-26T00:31:23;10.52;;;4.47;;
45792;SDS011;31495;42.740;22.908;2022-10-26T00:32:23;10.82;;;5.07;;
45792;SDS011;31495;42.740;22.908;2022-10-26T00:33:22;13.18;;;5.50;;
45792;SDS011;31495;42.740;22.908;2022-10-26T00:34:23;9.43;;;4.40;;
45792;SDS011;31495;42.740;22.908;2022-10-26T00:35:22;12.52;;;4.70;;
45792;SDS011;31495;42.740;22.908;2022-10-26T00:36:22;14.57;;;4.90;;
45792;SDS011;31495;42.740;22.908;2022-10-26T00:37:23;10.02;;;4.20;;
45792;SDS011;31495;42.740;22.908;2022-10-26T00:38:23;9.38;;;4.90;;
45792;SDS011;31495;42.740;22.908;2022-10-26T00:39:22;11.20;;;4.60;;
45792;SDS011;31495;42.740;22.908;2022-10-26T00:40:25;17.63;;;4.88;;
45792;SDS011;31495;42.740;22.908;2022-10-26T00:41:27;9.88;;;4.80;;
45792;SDS011;31495;42.740;22.908;2022-10-26T00:42:29;8.20;;;3.83;;
45792;SDS011;31495;42.740;22.908;2022-10-26T00:45:01;11.50;;;5.70;;
45792;SDS011;31495;42.740;22.908;2022-10-26T00:45:59;12.25;;;4.82;;
45792;SDS011;31495;42.740;22.908;2022-10-26T00:47:03;13.52;;;5.97;;
45792;SDS011;31495;42.740;22.908;2022-10-26T00:48:04;14.27;;;5.45;;
45792;SDS011;31495;42.740;22.908;2022-10-26T00:49:09;8.57;;;5.03;;
45792;SDS011;31495;42.740;22.908;2022-10-26T00:50:14;14.07;;;6.22;;
45792;SDS011;31495;42.740;22.908;2022-10-26T00:51:28;12.45;;;6.20;;
45792;SDS011;31495;42.740;22.908;2022-10-26T00:52:33;10.98;;;5.75;;
45792;SDS011;31495;42.740;22.908;2022-10-26T00:53:33;15.73;;;6.03;;
45792;SDS011;31495;42.740;22.908;2022-10-26T00:54:34;15.27;;;5.15;;
45792;SDS011;31495;42.740;22.908;2022-10-26T00:55:34;10.18;;;5.18;;
45792;SDS011;31495;42.740;22.908;2022-10-26T00:56:38;8.70;;;4.85;;
45792;SDS011;31495;42.740;22.908;2022-10-26T00:57:40;10.85;;;5.55;;
45792;SDS011;31495;42.740;22.908;2022-10-26T00:58:39;9.73;;;5.88;;
45792;SDS011;31495;42.740;22.908;2022-10-26T00:59:39;12.57;;;6.47;;
45792;SDS011;31495;42.740;22.908;2022-10-26T01:00:40;10.20;;;5.22;;
45792;SDS011;31495;42.740;22.908;2022-10-26T01:01:42;11.68;;;5.25;;
45792;SDS011;31495;42.740;22.908;2022-10-26T01:02:43;14.70;;;5.63;;
45792;SDS011;31495;42.740;22.908;2022-10-26T01:03:44;14.05;;;6.20;;
45792;SDS011;31495;42.740;22.908;2022-10-26T01:04:45;18.55;;;6.65;;
45792;SDS011;31495;42.740;22.908;2022-10-26T01:05:46;12.18;;;5.80;;
45792;SDS011;31495;42.740;22.908;2022-10-26T01:06:47;15.35;;;6.75;;
45792;SDS011;31495;42.740;22.908;2022-10-26T01:07:47;14.02;;;6.60;;
45792;SDS011;31495;42.740;22.908;2022-10-26T01:08:48;13.27;;;5.85;;
45792;SDS011;31495;42.740;22.908;2022-10-26T01:09:48;13.98;;;7.22;;
45792;SDS011;31495;42.740;22.908;2022-10-26T01:10:49;13.13;;;5.95;;
45792;SDS011;31495;42.740;22.908;2022-10-26T01:11:50;13.52;;;5.93;;
45792;SDS011;31495;42.740;22.908;2022-10-26T01:12:49;12.10;;;4.82;;
45792;SDS011;31495;42.740;22.908;2022-10-26T01:13:49;15.43;;;6.25;;
45792;SDS011;31495;42.740;22.908;2022-10-26T01:14:52;13.70;;;5.90;;
45792;SDS011;31495;42.740;22.908;2022-10-26T01:20:59;15.55;;;5.13;;
45792;SDS011;31495;42.740;22.908;2022-10-26T01:22:32;18.00;;;6.32;;
45792;SDS011;31495;42.740;22.908;2022-10-26T01:23:58;12.63;;;5.28;;
45792;SDS011;31495;42.740;22.908;2022-10-26T01:27:49;19.42;;;5.00;;
45792;SDS011;31495;42.740;22.908;2022-10-26T01:30:13;12.57;;;4.68;;
45792;SDS011;31495;42.740;22.908;2022-10-26T01:31:37;9.48;;;5.00;;
45792;SDS011;31495;42.740;22.908;2022-10-26T01:32:45;12.40;;;5.47;;
45792;SDS011;31495;42.740;22.908;2022-10-26T01:33:56;8.77;;;4.65;;
45792;SDS011;31495;42.740;22.908;2022-10-26T01:35:05;12.15;;;4.90;;
45792;SDS011;31495;42.740;22.908;2022-10-26T01:37:22;11.65;;;4.95;;
45792;SDS011;31495;42.740;22.908;2022-10-26T01:39:44;8.73;;;4.18;;
45792;SDS011;31495;42.740;22.908;2022-10-26T01:42:15;13.32;;;4.95;;
45792;SDS011;31495;42.740;22.908;2022-10-26T01:43:16;11.70;;;5.22;;
45792;SDS011;31495;42.740;22.908;2022-10-26T01:44:32;11.88;;;4.80;;
45792;SDS011;31495;42.740;22.908;2022-10-26T01:45:41;8.52;;;4.88;;
45792;SDS011;31495;42.740;22.908;2022-10-26T01:46:44;10.30;;;5.03;;
45792;SDS011;31495;42.740;22.908;2022-10-26T01:47:47;12.10;;;5.22;;
45792;SDS011;31495;42.740;22.908;2022-10-26T01:48:48;12.13;;;5.60;;
45792;SDS011;31495;42.740;22.908;2022-10-26T01:49:54;9.88;;;5.40;;
45792;SDS011;31495;42.740;22.908;2022-10-26T01:50:56;12.05;;;5.55;;
45792;SDS011;31495;42.740;22.908;2022-10-26T01:51:56;9.38;;;5.85;;
45792;SDS011;31495;42.740;22.908;2022-10-26T01:52:55;10.98;;;5.53;;
45792;SDS011;31495;42.740;22.908;2022-10-26T01:53:56;13.43;;;5.88;;
45792;SDS011;31495;42.740;22.908;2022-10-26T01:56:26;13.15;;;5.38;;
45792;SDS011;31495;42.740;22.908;2022-10-26T01:57:28;9.73;;;5.30;;
45792;SDS011;31495;42.740;22.908;2022-10-26T01:59:54;13.85;;;5.18;;
45792;SDS011;31495;42.740;22.908;2022-10-26T02:01:09;11.52;;;5.10;;
45792;SDS011;31495;42.740;22.908;2022-10-26T02:03:43;8.68;;;4.40;;
45792;SDS011;31495;42.740;22.908;2022-10-26T02:06:23;9.90;;;4.85;;
45792;SDS011;31495;42.740;22.908;2022-10-26T02:10:45;13.18;;;5.45;;
45792;SDS011;31495;42.740;22.908;2022-10-26T02:11:47;8.32;;;4.68;;
45792;SDS011;31495;42.740;22.908;2022-10-26T02:16:18;15.05;;;6.00;;
45792;SDS011;31495;42.740;22.908;2022-10-26T02:20:04;12.73;;;5.38;;
45792;SDS011;31495;42.740;22.908;2022-10-26T02:21:11;11.65;;;4.78;;
45792;SDS011;31495;42.740;22.908;2022-10-26T02:22:17;13.95;;;5.50;;
45792;SDS011;31495;42.740;22.908;2022-10-26T02:23:22;10.35;;;4.95;;
45792;SDS011;31495;42.740;22.908;2022-10-26T02:24:25;7.72;;;4.63;;
45792;SDS011;31495;42.740;22.908;2022-10-26T02:25:27;11.48;;;5.28;;
45792;SDS011;31495;42.740;22.908;2022-10-26T02:26:30;13.63;;;4.45;;
45792;SDS011;31495;42.740;22.908;2022-10-26T02:27:31;10.75;;;4.53;;
45792;SDS011;31495;42.740;22.908;2022-10-26T02:28:36;12.23;;;5.45;;
45792;SDS011;31495;42.740;22.908;2022-10-26T02:29:40;11.80;;;4.93;;
45792;SDS011;31495;42.740;22.908;2022-10-26T02:30:41;9.27;;;5.05;;
45792;SDS011;31495;42.740;22.908;2022-10-26T02:31:44;12.82;;;4.22;;
45792;SDS011;31495;42.740;22.908;2022-10-26T02:32:47;6.85;;;4.03;;
45792;SDS011;31495;42.740;22.908;2022-10-26T02:33:50;11.27;;;4.00;;
45792;SDS011;31495;42.740;22.908;2022-10-26T02:34:55;7.72;;;4.63;;
45792;SDS011;31495;42.740;22.908;2022-10-26T02:35:58;10.75;;;4.03;;
45792;SDS011;31495;42.740;22.908;2022-10-26T02:37:00;8.85;;;4.35;;
45792;SDS011;31495;42.740;22.908;2022-10-26T02:38:03;8.18;;;3.53;;
45792;SDS011;31495;42.740;22.908;2022-10-26T02:39:07;6.03;;;3.97;;
45792;SDS011;31495;42.740;22.908;2022-10-26T02:40:10;13.18;;;5.10;;
45792;SDS011;31495;42.740;22.908;2022-10-26T02:41:15;9.05;;;4.45;;
45792;SDS011;31495;42.740;22.908;2022-10-26T02:42:17;10.13;;;4.40;;
45792;SDS011;31495;42.740;22.908;2022-10-26T02:43:17;16.95;;;5.13;;
45792;SDS011;31495;42.740;22.908;2022-10-26T02:44:24;11.07;;;4.35;;
45792;SDS011;31495;42.740;22.908;2022-10-26T02:45:26;9.00;;;4.70;;
45792;SDS011;31495;42.740;22.908;2022-10-26T02:46:31;11.63;;;5.35;;
45792;SDS011;31495;42.740;22.908;2022-10-26T02:47:31;7.70;;;4.45;;
45792;SDS011;31495;42.740;22.908;2022-10-26T02:48:32;10.07;;;4.22;;
45792;SDS011;31495;42.740;22.908;2022-10-26T02:49:31;9.25;;;4.63;;
45792;SDS011;31495;42.740;22.908;2022-10-26T02:50:39;7.38;;;4.60;;
45792;SDS011;31495;42.740;22.908;2022-10-26T02:53:16;8.32;;;4.28;;
45792;SDS011;31495;42.740;22.908;2022-10-26T02:55:36;8.85;;;4.30;;
45792;SDS011;31495;42.740;22.908;2022-10-26T02:56:49;9.20;;;4.32;;
45792;SDS011;31495;42.740;22.908;2022-10-26T02:57:59;11.15;;;3.70;;
45792;SDS011;31495;42.740;22.908;2022-10-26T02:59:03;8.82;;;4.22;;
45792;SDS011;31495;42.740;22.908;2022-10-26T03:00:08;11.57;;;5.32;;
45792;SDS011;31495;42.740;22.908;2022-10-26T03:01:11;8.93;;;3.38;;
45792;SDS011;31495;42.740;22.908;2022-10-26T03:02:11;14.38;;;4.45;;
45792;SDS011;31495;42.740;22.908;2022-10-26T03:03:12;7.93;;;4.57;;
45792;SDS011;31495;42.740;22.908;2022-10-26T03:04:13;13.55;;;5.57;;
45792;SDS011;31495;42.740;22.908;2022-10-26T03:05:20;21.20;;;7.97;;
45792;SDS011;31495;42.740;22.908;2022-10-26T03:06:23;19.98;;;8.82;;
45792;SDS011;31495;42.740;22.908;2022-10-26T03:07:23;17.13;;;8.05;;
45792;SDS011;31495;42.740;22.908;2022-10-26T03:08:22;12.32;;;5.28;;
45792;SDS011;31495;42.740;22.908;2022-10-26T03:09:22;13.95;;;5.90;;
45792;SDS011;31495;42.740;22.908;2022-10-26T03:10:22;9.68;;;5.43;;
45792;SDS011;31495;42.740;22.908;2022-10-26T03:11:22;10.02;;;4.78;;
45792;SDS011;31495;42.740;22.908;2022-10-26T03:12:21;13.88;;;6.07;;
45792;SDS011;31495;42.740;22.908;2022-10-26T03:13:20;10.68;;;5.18;;
45792;SDS011;31495;42.740;22.908;2022-10-26T03:14:20;10.32;;;5.13;;
45792;SDS011;31495;42.740;22.908;2022-10-26T03:15:19;9.38;;;4.63;;
45792;SDS011;31495;42.740;22.908;2022-10-26T03:16:19;12.10;;;5.68;;
45792;SDS011;31495;42.740;22.908;2022-10-26T03:17:18;12.00;;;5.78;;
45792;SDS011;31495;42.740;22.908;2022-10-26T03:18:18;11.88;;;5.55;;
45792;SDS011;31495;42.740;22.908;2022-10-26T03:19:17;24.88;;;9.73;;
45792;SDS011;31495;42.740;22.908;2022-10-26T03:20:17;15.85;;;9.00;;
45792;SDS011;31495;42.740;22.908;2022-10-26T03:21:17;18.17;;;9.00;;
45792;SDS011;31495;42.740;22.908;2022-10-26T03:22:16;19.48;;;8.75;;
45792;SDS011;31495;42.740;22.908;2022-10-26T03:23:16;14.73;;;7.28;;
45792;SDS011;31495;42.740;22.908;2022-10-26T03:24:15;15.75;;;7.20;;
45792;SDS011;31495;42.740;22.908;2022-10-26T03:25:15;17.92;;;7.22;;
45792;SDS011;31495;42.740;22.908;2022-10-26T03:26:15;13.75;;;7.10;;
45792;SDS011;31495;42.740;22.908;2022-10-26T03:27:14;16.05;;;6.95;;
45792;SDS011;31495;42.740;22.908;2022-10-26T03:28:13;21.50;;;10.10;;
45792;SDS011;31495;42.740;22.908;2022-10-26T03:29:13;23.95;;;10.43;;
45792;SDS011;31495;42.740;22.908;2022-10-26T03:30:13;22.42;;;10.30;;
45792;SDS011;31495;42.740;22.908;2022-10-26T03:31:12;19.45;;;8.50;;
45792;SDS011;31495;42.740;22.908;2022-10-26T03:32:11;17.35;;;8.80;;
45792;SDS011;31495;42.740;22.908;2022-10-26T03:33:11;13.68;;;6.35;;
45792;SDS011;31495;42.740;22.908;2022-10-26T03:34:10;10.90;;;6.13;;
45792;SDS011;31495;42.740;22.908;2022-10-26T03:35:10;14.75;;;7.03;;
45792;SDS011;31495;42.740;22.908;2022-10-26T03:36:10;16.17;;;7.32;;
45792;SDS011;31495;42.740;22.908;2022-10-26T03:37:09;15.73;;;6.43;;
45792;SDS011;31495;42.740;22.908;2022-10-26T03:38:08;16.33;;;7.28;;
45792;SDS011;31495;42.740;22.908;2022-10-26T03:39:08;12.55;;;5.50;;
45792;SDS011;31495;42.740;22.908;2022-10-26T03:40:08;11.15;;;5.68;;
45792;SDS011;31495;42.740;22.908;2022-10-26T03:41:08;11.43;;;4.97;;
45792;SDS011;31495;42.740;22.908;2022-10-26T03:42:07;15.43;;;5.15;;
45792;SDS011;31495;42.740;22.908;2022-10-26T03:43:06;12.25;;;5.30;;
45792;SDS011;31495;42.740;22.908;2022-10-26T03:44:06;11.38;;;5.80;;
45792;SDS011;31495;42.740;22.908;2022-10-26T03:45:06;11.75;;;5.85;;
45792;SDS011;31495;42.740;22.908;2022-10-26T03:46:06;13.45;;;5.88;;
45792;SDS011;31495;42.740;22.908;2022-10-26T03:47:05;13.10;;;6.03;;
45792;SDS011;31495;42.740;22.908;2022-10-26T03:48:04;13.20;;;5.47;;
45792;SDS011;31495;42.740;22.908;2022-10-26T03:49:04;20.63;;;9.82;;
45792;SDS011;31495;42.740;22.908;2022-10-26T03:50:03;15.05;;;6.65;;
45792;SDS011;31495;42.740;22.908;2022-10-26T03:51:03;17.75;;;6.07;;
45792;SDS011;31495;42.740;22.908;2022-10-26T03:52:03;11.15;;;5.63;;
45792;SDS011;31495;42.740;22.908;2022-10-26T03:53:02;9.82;;;5.20;;
45792;SDS011;31495;42.740;22.908;2022-10-26T03:54:02;17.63;;;5.80;;
45792;SDS011;31495;42.740;22.908;2022-10-26T03:55:02;10.02;;;6.20;;
45792;SDS011;31495;42.740;22.908;2022-10-26T03:56:02;10.55;;;5.68;;
45792;SDS011;31495;42.740;22.908;2022-10-26T03:57:01;11.45;;;5.53;;
45792;SDS011;31495;42.740;22.908;2022-10-26T03:58:00;15.07;;;6.40;;
45792;SDS011;31495;42.740;22.908;2022-10-26T03:59:00;13.55;;;5.10;;
45792;SDS011;31495;42.740;22.908;2022-10-26T03:59:59;11.05;;;4.20;;
45792;SDS011;31495;42.740;22.908;2022-10-26T04:00:59;15.38;;;4.10;;
45792;SDS011;31495;42.740;22.908;2022-10-26T04:01:58;9.77;;;4.85;;
45792;SDS011;31495;42.740;22.908;2022-10-26T04:02:58;18.65;;;5.47;;
45792;SDS011;31495;42.740;22.908;2022-10-26T04:03:58;17.20;;;6.05;;
45792;SDS011;31495;42.740;22.908;2022-10-26T04:04:57;10.57;;;4.97;;
45792;SDS011;31495;42.740;22.908;2022-10-26T04:06:00;12.65;;;5.45;;
45792;SDS011;31495;42.740;22.908;2022-10-26T04:07:00;10.75;;;5.15;;
45792;SDS011;31495;42.740;22.908;2022-10-26T04:08:00;7.90;;;4.93;;
45792;SDS011;31495;42.740;22.908;2022-10-26T04:09:01;13.60;;;4.55;;
45792;SDS011;31495;42.740;22.908;2022-10-26T04:10:02;10.07;;;5.63;;
45792;SDS011;31495;42.740;22.908;2022-10-26T04:11:03;10.75;;;5.18;;
45792;SDS011;31495;42.740;22.908;2022-10-26T04:12:03;12.50;;;4.88;;
45792;SDS011;31495;42.740;22.908;2022-10-26T04:13:02;10.55;;;4.53;;
45792;SDS011;31495;42.740;22.908;2022-10-26T04:14:02;9.75;;;5.50;;
45792;SDS011;31495;42.740;22.908;2022-10-26T04:15:01;11.52;;;5.55;;
45792;SDS011;31495;42.740;22.908;2022-10-26T04:16:01;10.07;;;5.45;;
45792;SDS011;31495;42.740;22.908;2022-10-26T04:17:00;13.07;;;4.65;;
45792;SDS011;31495;42.740;22.908;2022-10-26T04:18:00;18.30;;;9.07;;
45792;SDS011;31495;42.740;22.908;2022-10-26T04:19:00;14.30;;;8.82;;
45792;SDS011;31495;42.740;22.908;2022-10-26T04:20:00;12.13;;;6.70;;
45792;SDS011;31495;42.740;22.908;2022-10-26T04:20:59;12.18;;;7.75;;
45792;SDS011;31495;42.740;22.908;2022-10-26T04:22:00;12.38;;;7.72;;
45792;SDS011;31495;42.740;22.908;2022-10-26T04:23:00;16.60;;;8.93;;
45792;SDS011;31495;42.740;22.908;2022-10-26T04:24:02;14.57;;;7.80;;
45792;SDS011;31495;42.740;22.908;2022-10-26T04:25:02;10.75;;;7.38;;
45792;SDS011;31495;42.740;22.908;2022-10-26T04:26:03;13.73;;;6.93;;
45792;SDS011;31495;42.740;22.908;2022-10-26T04:27:04;11.82;;;7.15;;
45792;SDS011;31495;42.740;22.908;2022-10-26T04:28:03;14.82;;;7.05;;
45792;SDS011;31495;42.740;22.908;2022-10-26T04:29:04;12.60;;;5.65;;
45792;SDS011;31495;42.740;22.908;2022-10-26T04:30:04;16.27;;;6.22;;
45792;SDS011;31495;42.740;22.908;2022-10-26T04:31:07;11.27;;;6.32;;
45792;SDS011;31495;42.740;22.908;2022-10-26T04:32:07;9.90;;;6.68;;
45792;SDS011;31495;42.740;22.908;2022-10-26T04:33:06;14.65;;;6.80;;
45792;SDS011;31495;42.740;22.908;2022-10-26T04:34:06;11.95;;;6.35;;
45792;SDS011;31495;42.740;22.908;2022-10-26T04:35:05;15.45;;;5.80;;
45792;SDS011;31495;42.740;22.908;2022-10-26T04:36:05;9.55;;;6.13;;
45792;SDS011;31495;42.740;22.908;2022-10-26T04:37:05;11.95;;;6.47;;
45792;SDS011;31495;42.740;22.908;2022-10-26T04:38:05;11.25;;;6.65;;
45792;SDS011;31495;42.740;22.908;2022-10-26T04:39:05;12.10;;;5.60;;
45792;SDS011;31495;42.740;22.908;2022-10-26T04:40:05;12.82;;;6.53;;
45792;SDS011;31495;42.740;22.908;2022-10-26T04:41:05;13.35;;;5.97;;
45792;SDS011;31495;42.740;22.908;2022-10-26T04:42:04;12.88;;;7.05;;
45792;SDS011;31495;42.740;22.908;2022-10-26T04:43:04;10.63;;;6.10;;
45792;SDS011;31495;42.740;22.908;2022-10-26T04:44:04;13.02;;;7.20;;
45792;SDS011;31495;42.740;22.908;2022-10-26T04:45:03;13.40;;;6.68;;
45792;SDS011;31495;42.740;22.908;2022-10-26T04:46:03;13.55;;;7.30;;
45792;SDS011;31495;42.740;22.908;2022-10-26T04:47:03;10.88;;;6.40;;
45792;SDS011;31495;42.740;22.908;2022-10-26T04:48:04;10.50;;;6.22;;
45792;SDS011;31495;42.740;22.908;2022-10-26T04:49:11;10.98;;;5.90;;
45792;SDS011;31495;42.740;22.908;2022-10-26T04:50:11;13.10;;;6.57;;
45792;SDS011;31495;42.740;22.908;2022-10-26T04:51:12;11.73;;;7.43;;
45792;SDS011;31495;42.740;22.908;2022-10-26T04:52:11;15.88;;;7.70;;
45792;SDS011;31495;42.740;22.908;2022-10-26T04:53:11;10.50;;;6.55;;
45792;SDS011;31495;42.740;22.908;2022-10-26T04:54:10;12.07;;;7.07;;
45792;SDS011;31495;42.740;22.908;2022-10-26T04:55:09;13.80;;;6.97;;
45792;SDS011;31495;42.740;22.908;2022-10-26T04:56:09;13.68;;;7.50;;
45792;SDS011;31495;42.740;22.908;2022-10-26T04:57:08;12.23;;;7.15;;
45792;SDS011;31495;42.740;22.908;2022-10-26T04:58:08;14.27;;;6.55;;
45792;SDS011;31495;42.740;22.908;2022-10-26T04:59:08;17.30;;;6.95;;
45792;SDS011;31495;42.740;22.908;2022-10-26T05:00:07;13.82;;;7.38;;
45792;SDS011;31495;42.740;22.908;2022-10-26T05:01:07;15.05;;;7.50;;
45792;SDS011;31495;42.740;22.908;2022-10-26T05:02:07;15.77;;;7.20;;
45792;SDS011;31495;42.740;22.908;2022-10-26T05:03:06;9.48;;;4.88;;
45792;SDS011;31495;42.740;22.908;2022-10-26T05:04:07;10.95;;;5.70;;
45792;SDS011;31495;42.740;22.908;2022-10-26T05:05:07;13.70;;;6.38;;
45792;SDS011;31495;42.740;22.908;2022-10-26T05:06:07;18.40;;;9.95;;
45792;SDS011;31495;42.740;22.908;2022-10-26T05:07:06;15.75;;;10.50;;
45792;SDS011;31495;42.740;22.908;2022-10-26T05:08:05;25.15;;;12.63;;
45792;SDS011;31495;42.740;22.908;2022-10-26T05:09:05;50.13;;;19.00;;
45792;SDS011;31495;42.740;22.908;2022-10-26T05:10:04;26.95;;;14.93;;
45792;SDS011;31495;42.740;22.908;2022-10-26T05:11:05;25.85;;;13.77;;
45792;SDS011;31495;42.740;22.908;2022-10-26T05:12:04;27.73;;;15.00;;
45792;SDS011;31495;42.740;22.908;2022-10-26T05:13:04;32.40;;;16.10;;
45792;SDS011;31495;42.740;22.908;2022-10-26T05:14:03;29.80;;;14.48;;
45792;SDS011;31495;42.740;22.908;2022-10-26T05:15:02;27.58;;;16.15;;
45792;SDS011;31495;42.740;22.908;2022-10-26T05:16:02;29.55;;;16.70;;
45792;SDS011;31495;42.740;22.908;2022-10-26T05:17:02;20.05;;;9.38;;
45792;SDS011;31495;42.740;22.908;2022-10-26T05:18:03;22.65;;;10.82;;
45792;SDS011;31495;42.740;22.908;2022-10-26T05:20:03;18.50;;;10.23;;
45792;SDS011;31495;42.740;22.908;2022-10-26T05:21:04;24.55;;;11.55;;
45792;SDS011;31495;42.740;22.908;2022-10-26T05:22:03;18.95;;;8.48;;
45792;SDS011;31495;42.740;22.908;2022-10-26T05:23:04;14.32;;;7.07;;
45792;SDS011;31495;42.740;22.908;2022-10-26T05:24:08;13.70;;;7.40;;
45792;SDS011;31495;42.740;22.908;2022-10-26T05:25:08;22.50;;;9.27;;
45792;SDS011;31495;42.740;22.908;2022-10-26T05:26:07;19.88;;;9.68;;
45792;SDS011;31495;42.740;22.908;2022-10-26T05:27:07;24.25;;;9.55;;
45792;SDS011;31495;42.740;22.908;2022-10-26T05:28:08;25.50;;;10.52;;
45792;SDS011;31495;42.740;22.908;2022-10-26T05:29:12;14.65;;;9.25;;
45792;SDS011;31495;42.740;22.908;2022-10-26T05:30:11;16.27;;;8.90;;
45792;SDS011;31495;42.740;22.908;2022-10-26T05:31:11;16.48;;;8.57;;
45792;SDS011;31495;42.740;22.908;2022-10-26T05:32:11;20.23;;;9.48;;
45792;SDS011;31495;42.740;22.908;2022-10-26T05:33:11;20.05;;;8.52;;
45792;SDS011;31495;42.740;22.908;2022-10-26T05:34:12;15.07;;;7.80;;
45792;SDS011;31495;42.740;22.908;2022-10-26T05:35:11;12.90;;;7.13;;
45792;SDS011;31495;42.740;22.908;2022-10-26T05:36:11;19.27;;;7.97;;
45792;SDS011;31495;42.740;22.908;2022-10-26T05:37:10;16.80;;;7.18;;
45792;SDS011;31495;42.740;22.908;2022-10-26T05:38:14;16.75;;;6.70;;
45792;SDS011;31495;42.740;22.908;2022-10-26T05:39:14;16.58;;;6.45;;
45792;SDS011;31495;42.740;22.908;2022-10-26T05:40:14;18.75;;;8.48;;
45792;SDS011;31495;42.740;22.908;2022-10-26T05:41:15;19.00;;;8.45;;
45792;SDS011;31495;42.740;22.908;2022-10-26T05:42:14;20.63;;;8.93;;
45792;SDS011;31495;42.740;22.908;2022-10-26T05:43:14;20.15;;;8.23;;
45792;SDS011;31495;42.740;22.908;2022-10-26T05:44:14;21.65;;;10.02;;
45792;SDS011;31495;42.740;22.908;2022-10-26T05:45:13;20.60;;;10.18;;
45792;SDS011;31495;42.740;22.908;2022-10-26T05:46:13;22.90;;;9.05;;
45792;SDS011;31495;42.740;22.908;2022-10-26T05:47:12;24.50;;;11.45;;
45792;SDS011;31495;42.740;22.908;2022-10-26T05:48:12;38.65;;;18.25;;
45792;SDS011;31495;42.740;22.908;2022-10-26T05:49:11;63.38;;;25.02;;
45792;SDS011;31495;42.740;22.908;2022-10-26T05:50:11;37.45;;;16.75;;
45792;SDS011;31495;42.740;22.908;2022-10-26T05:51:12;35.70;;;18.05;;
45792;SDS011;31495;42.740;22.908;2022-10-26T05:52:12;35.05;;;18.80;;
45792;SDS011;31495;42.740;22.908;2022-10-26T05:53:11;40.85;;;18.45;;
45792;SDS011;31495;42.740;22.908;2022-10-26T05:54:11;42.50;;;20.55;;
45792;SDS011;31495;42.740;22.908;2022-10-26T05:55:12;35.13;;;17.98;;
45792;SDS011;31495;42.740;22.908;2022-10-26T05:56:18;44.40;;;21.67;;
45792;SDS011;31495;42.740;22.908;2022-10-26T05:57:19;40.15;;;20.88;;
45792;SDS011;31495;42.740;22.908;2022-10-26T05:58:19;51.58;;;24.13;;
45792;SDS011;31495;42.740;22.908;2022-10-26T05:59:19;45.80;;;22.20;;
45792;SDS011;31495;42.740;22.908;2022-10-26T06:00:23;49.75;;;24.33;;
45792;SDS011;31495;42.740;22.908;2022-10-26T06:02:42;40.28;;;21.77;;
45792;SDS011;31495;42.740;22.908;2022-10-26T06:05:03;31.15;;;16.55;;
45792;SDS011;31495;42.740;22.908;2022-10-26T06:06:03;32.78;;;17.50;;
45792;SDS011;31495;42.740;22.908;2022-10-26T06:07:09;39.63;;;18.15;;
45792;SDS011;31495;42.740;22.908;2022-10-26T06:08:11;31.25;;;15.80;;
45792;SDS011;31495;42.740;22.908;2022-10-26T06:09:11;26.10;;;13.77;;
45792;SDS011;31495;42.740;22.908;2022-10-26T06:10:12;23.05;;;14.07;;
45792;SDS011;31495;42.740;22.908;2022-10-26T06:11:12;26.23;;;12.63;;
45792;SDS011;31495;42.740;22.908;2022-10-26T06:12:12;26.60;;;13.27;;
45792;SDS011;31495;42.740;22.908;2022-10-26T06:13:13;22.08;;;14.20;;
45792;SDS011;31495;42.740;22.908;2022-10-26T06:14:13;25.70;;;12.68;;
45792;SDS011;31495;42.740;22.908;2022-10-26T06:15:17;25.92;;;11.90;;
45792;SDS011;31495;42.740;22.908;2022-10-26T06:16:25;30.60;;;15.07;;
45792;SDS011;31495;42.740;22.908;2022-10-26T06:17:56;25.77;;;14.98;;
45792;SDS011;31495;42.740;22.908;2022-10-26T06:23:54;20.88;;;10.30;;
45792;SDS011;31495;42.740;22.908;2022-10-26T06:28:13;18.42;;;10.15;;
45792;SDS011;31495;42.740;22.908;2022-10-26T06:29:44;19.63;;;9.25;;
45792;SDS011;31495;42.740;22.908;2022-10-26T06:30:49;22.98;;;9.43;;
45792;SDS011;31495;42.740;22.908;2022-10-26T06:31:49;19.63;;;10.60;;
45792;SDS011;31495;42.740;22.908;2022-10-26T06:32:49;23.83;;;10.02;;
45792;SDS011;31495;42.740;22.908;2022-10-26T06:33:58;20.05;;;10.07;;
45792;SDS011;31495;42.740;22.908;2022-10-26T06:36:36;16.70;;;9.13;;
45792;SDS011;31495;42.740;22.908;2022-10-26T06:37:37;29.85;;;10.55;;
45792;SDS011;31495;42.740;22.908;2022-10-26T06:38:37;20.60;;;10.48;;
45792;SDS011;31495;42.740;22.908;2022-10-26T06:39:42;18.98;;;10.43;;
45792;SDS011;31495;42.740;22.908;2022-10-26T06:40:45;24.48;;;11.55;;
45792;SDS011;31495;42.740;22.908;2022-10-26T06:41:47;27.83;;;11.95;;
45792;SDS011;31495;42.740;22.908;2022-10-26T06:42:48;21.52;;;10.32;;
45792;SDS011;31495;42.740;22.908;2022-10-26T06:43:48;20.77;;;10.32;;
45792;SDS011;31495;42.740;22.908;2022-10-26T06:44:48;16.80;;;8.52;;
45792;SDS011;31495;42.740;22.908;2022-10-26T06:45:49;22.35;;;8.07;;